createdAt,value
2018-08-22T00:00:06.317Z,84.98
2018-08-22T00:01:06.300Z,85.17
2018-08-22T00:02:06.288Z,84.98
2018-08-22T00:03:06.268Z,85.36
2018-08-22T00:04:06.260Z,85.17
2018-08-22T00:05:06.241Z,85.65
2018-08-22T00:06:06.224Z,86.13
2018-08-22T00:07:06.208Z,85.46
2018-08-22T00:08:06.196Z,85.55
2018-08-22T00:09:06.302Z,84.98
2018-08-22T00:10:06.167Z,85.07
2018-08-22T00:11:06.149Z,84.21
2018-08-22T00:12:06.137Z,84.11
2018-08-22T00:13:06.121Z,84.34
2018-08-22T00:14:06.105Z,84.44
2018-08-22T00:15:06.138Z,84.73
2018-08-22T00:16:06.074Z,84.73
2018-08-22T00:17:06.065Z,84.25
2018-08-22T00:18:06.055Z,84.63
2018-08-22T00:19:06.031Z,83.67
2018-08-22T00:20:06.015Z,83.58
2018-08-22T00:21:06.000Z,83.67
2018-08-22T00:22:05.986Z,83.86
2018-08-22T00:23:05.972Z,83.09
2018-08-22T00:24:05.957Z,83.19
2018-08-22T00:25:05.957Z,83.29
2018-08-22T00:26:05.930Z,83.00
2018-08-22T00:27:05.922Z,83.29
2018-08-22T00:28:05.898Z,82.56
2018-08-22T00:29:05.888Z,83.04
2018-08-22T00:30:05.869Z,83.04
2018-08-22T00:31:05.871Z,83.33
2018-08-22T00:32:05.838Z,83.33
2018-08-22T00:33:05.831Z,83.33
2018-08-22T00:34:05.808Z,82.90
2018-08-22T00:35:05.800Z,82.75
2018-08-22T00:36:05.779Z,83.58
2018-08-22T00:37:05.765Z,83.23
2018-08-22T00:38:05.757Z,83.29
2018-08-22T00:39:05.737Z,82.94
2018-08-22T00:40:05.719Z,82.71
2018-08-22T00:41:05.704Z,83.09
2018-08-22T00:42:05.691Z,83.23
2018-08-22T00:43:05.675Z,83.09
2018-08-22T00:44:05.659Z,83.09
2018-08-22T00:45:05.649Z,83.52
2018-08-22T00:46:05.640Z,83.00
2018-08-22T00:47:05.624Z,82.71
2018-08-22T00:48:05.600Z,83.39
2018-08-22T00:49:05.586Z,82.75
2018-08-22T00:50:05.575Z,83.00
2018-08-22T00:51:05.556Z,82.90
2018-08-22T00:52:05.544Z,82.90
2018-08-22T00:53:05.526Z,82.71
2018-08-22T00:54:05.511Z,82.81
2018-08-22T00:55:05.500Z,82.71
2018-08-22T00:56:05.483Z,83.39
2018-08-22T00:57:05.467Z,82.71
2018-08-22T00:58:05.454Z,83.48
2018-08-22T00:59:05.438Z,83.09
2018-08-22T01:00:05.427Z,83.19
2018-08-22T01:01:05.409Z,83.29
2018-08-22T01:02:05.393Z,83.67
2018-08-22T01:03:05.384Z,83.67
2018-08-22T01:04:05.364Z,83.96
2018-08-22T01:05:05.358Z,83.29
2018-08-22T01:06:05.335Z,83.48
2018-08-22T01:07:05.321Z,83.86
2018-08-22T01:08:05.308Z,83.77
2018-08-22T01:09:05.292Z,83.86
2018-08-22T01:10:05.278Z,83.67
2018-08-22T01:11:05.264Z,83.39
2018-08-22T01:12:05.246Z,83.77
2018-08-22T01:13:05.232Z,83.67
2018-08-22T01:14:05.216Z,83.77
2018-08-22T01:15:05.204Z,83.09
2018-08-22T01:16:05.189Z,83.67
2018-08-22T01:17:05.173Z,83.33
2018-08-22T01:18:05.158Z,83.09
2018-08-22T01:19:05.144Z,83.67
2018-08-22T01:20:05.129Z,82.71
2018-08-22T01:21:05.115Z,82.81
2018-08-22T01:22:05.099Z,83.39
2018-08-22T01:23:05.086Z,83.09
2018-08-22T01:24:05.068Z,82.71
2018-08-22T01:25:05.056Z,82.71
2018-08-22T01:26:05.041Z,83.29
2018-08-22T01:27:05.027Z,83.52
2018-08-22T01:28:05.016Z,82.81
2018-08-22T01:29:04.996Z,82.52
2018-08-22T01:30:04.981Z,83.39
2018-08-22T01:31:04.976Z,83.14
2018-08-22T01:32:04.954Z,83.29
2018-08-22T01:33:04.936Z,83.09
2018-08-22T01:34:04.923Z,83.58
2018-08-22T01:35:04.910Z,83.09
2018-08-22T01:36:04.893Z,83.77
2018-08-22T01:37:04.876Z,84.34
2018-08-22T01:38:04.864Z,83.77
2018-08-22T01:39:04.849Z,83.72
2018-08-22T01:40:04.832Z,83.00
2018-08-22T01:41:04.818Z,83.33
2018-08-22T01:42:04.803Z,83.14
2018-08-22T01:43:04.789Z,83.91
2018-08-22T01:44:04.771Z,83.81
2018-08-22T01:45:04.767Z,83.14
2018-08-22T01:46:04.742Z,82.94
2018-08-22T01:47:04.731Z,83.14
2018-08-22T01:48:04.713Z,83.23
2018-08-22T01:49:04.702Z,83.14
2018-08-22T01:50:04.683Z,83.19
2018-08-22T01:51:04.671Z,83.23
2018-08-22T01:52:04.654Z,83.04
2018-08-22T01:53:04.643Z,83.14
2018-08-22T01:54:04.623Z,83.14
2018-08-22T01:55:04.609Z,82.75
2018-08-22T01:56:04.599Z,82.75
2018-08-22T01:57:04.579Z,82.94
2018-08-22T01:58:04.565Z,82.61
2018-08-22T01:59:04.552Z,83.29
2018-08-22T02:00:04.536Z,83.29
2018-08-22T02:01:04.522Z,83.67
2018-08-22T02:02:04.507Z,83.48
2018-08-22T02:03:04.493Z,83.58
2018-08-22T02:04:04.477Z,84.25
2018-08-22T02:05:04.465Z,83.96
2018-08-22T02:06:04.450Z,83.77
2018-08-22T02:07:04.434Z,83.58
2018-08-22T02:08:04.417Z,83.58
2018-08-22T02:09:04.402Z,83.48
2018-08-22T02:10:04.389Z,83.58
2018-08-22T02:11:04.374Z,83.86
2018-08-22T02:12:04.359Z,83.39
2018-08-22T02:13:04.342Z,83.86
2018-08-22T02:14:04.327Z,83.67
2018-08-22T02:15:04.314Z,83.48
2018-08-22T02:16:04.297Z,83.96
2018-08-22T02:17:04.283Z,83.39
2018-08-22T02:18:04.266Z,83.39
2018-08-22T02:19:04.259Z,83.39
2018-08-22T02:20:04.244Z,83.77
2018-08-22T02:21:04.223Z,83.39
2018-08-22T02:22:04.211Z,83.48
2018-08-22T02:23:04.200Z,83.67
2018-08-22T02:24:04.179Z,83.96
2018-08-22T02:25:04.197Z,84.06
2018-08-22T02:26:04.149Z,83.96
2018-08-22T02:27:04.139Z,83.86
2018-08-22T02:28:04.119Z,83.86
2018-08-22T02:29:04.106Z,84.16
2018-08-22T02:30:04.106Z,84.44
2018-08-22T02:31:04.075Z,84.34
2018-08-22T02:32:04.065Z,83.58
2018-08-22T02:33:04.046Z,83.77
2018-08-22T02:34:04.036Z,84.63
2018-08-22T02:35:04.018Z,84.34
2018-08-22T02:36:04.002Z,84.34
2018-08-22T02:37:03.986Z,84.44
2018-08-22T02:38:03.972Z,83.48
2018-08-22T02:39:03.957Z,83.58
2018-08-22T02:40:04.744Z,83.77
2018-08-22T02:41:03.928Z,84.16
2018-08-22T02:42:03.913Z,84.34
2018-08-22T02:43:03.898Z,84.16
2018-08-22T02:44:03.882Z,84.44
2018-08-22T02:45:03.871Z,84.73
2018-08-22T02:46:03.853Z,84.34
2018-08-22T02:47:03.837Z,84.92
2018-08-22T02:48:03.823Z,84.92
2018-08-22T02:49:03.808Z,85.02
2018-08-22T02:50:03.793Z,84.88
2018-08-22T02:51:03.778Z,84.73
2018-08-22T02:52:03.762Z,84.59
2018-08-22T02:53:03.756Z,84.78
2018-08-22T02:54:03.736Z,84.73
2018-08-22T02:55:03.720Z,84.88
2018-08-22T02:56:03.704Z,84.88
2018-08-22T02:57:03.686Z,85.07
2018-08-22T02:58:03.675Z,84.98
2018-08-22T02:59:03.659Z,85.36
2018-08-22T03:00:03.643Z,85.36
2018-08-22T03:01:03.631Z,85.46
2018-08-22T03:02:03.615Z,85.55
2018-08-22T03:03:03.599Z,84.98
2018-08-22T03:04:03.585Z,85.46
2018-08-22T03:05:03.572Z,85.17
2018-08-22T03:06:03.553Z,85.46
2018-08-22T03:07:03.546Z,85.36
2018-08-22T03:08:03.523Z,85.46
2018-08-22T03:09:03.508Z,84.98
2018-08-22T03:10:03.501Z,85.36
2018-08-22T03:11:03.479Z,85.84
2018-08-22T03:12:03.464Z,86.13
2018-08-22T03:13:03.448Z,86.32
2018-08-22T03:14:03.433Z,85.84
2018-08-22T03:15:03.420Z,86.32
2018-08-22T03:16:03.404Z,86.13
2018-08-22T03:17:03.399Z,86.32
2018-08-22T03:18:03.373Z,86.42
2018-08-22T03:19:03.356Z,86.13
2018-08-22T03:20:03.344Z,86.04
2018-08-22T03:21:03.327Z,86.80
2018-08-22T03:22:03.311Z,86.04
2018-08-22T03:23:03.297Z,86.61
2018-08-22T03:24:03.281Z,86.80
2018-08-22T03:25:03.277Z,86.71
2018-08-22T03:26:03.262Z,86.90
2018-08-22T03:27:03.237Z,86.90
2018-08-22T03:28:03.223Z,87.09
2018-08-22T03:29:03.209Z,86.99
2018-08-22T03:30:03.200Z,86.71
2018-08-22T03:31:03.180Z,88.06
2018-08-22T03:32:03.165Z,88.49
2018-08-22T03:33:03.145Z,88.78
2018-08-22T03:34:03.137Z,88.68
2018-08-22T03:35:03.118Z,89.36
2018-08-22T03:36:03.102Z,89.07
2018-08-22T03:37:03.085Z,89.16
2018-08-22T03:38:03.071Z,89.45
2018-08-22T03:39:03.056Z,89.36
2018-08-22T03:40:03.038Z,88.59
2018-08-22T03:41:03.025Z,88.78
2018-08-22T03:42:03.009Z,88.39
2018-08-22T03:43:02.997Z,88.82
2018-08-22T03:44:02.977Z,89.01
2018-08-22T03:45:02.962Z,88.44
2018-08-22T03:46:02.951Z,88.34
2018-08-22T03:47:02.937Z,88.53
2018-08-22T03:48:02.921Z,88.24
2018-08-22T03:49:02.907Z,88.53
2018-08-22T03:50:02.891Z,88.44
2018-08-22T03:51:02.871Z,87.86
2018-08-22T03:52:02.860Z,88.30
2018-08-22T03:53:02.842Z,88.20
2018-08-22T03:54:02.830Z,88.44
2018-08-22T03:55:02.825Z,89.01
2018-08-22T03:56:02.796Z,88.34
2018-08-22T03:57:02.782Z,88.78
2018-08-22T03:58:02.766Z,89.74
2018-08-22T03:59:02.752Z,90.66
2018-08-22T04:00:02.737Z,91.33
2018-08-22T04:01:02.721Z,91.52
2018-08-22T04:02:02.711Z,92.00
2018-08-22T04:03:02.691Z,91.81
2018-08-22T04:04:02.676Z,91.71
2018-08-22T04:05:02.660Z,91.52
2018-08-22T04:06:02.652Z,91.33
2018-08-22T04:07:02.631Z,90.99
2018-08-22T04:08:02.615Z,90.31
2018-08-22T04:09:02.600Z,90.99
2018-08-22T04:10:02.583Z,90.51
2018-08-22T04:11:02.570Z,90.22
2018-08-22T04:12:02.554Z,90.41
2018-08-22T04:13:02.538Z,90.51
2018-08-22T04:14:02.527Z,90.12
2018-08-22T04:15:02.509Z,89.83
2018-08-22T04:16:02.493Z,90.31
2018-08-22T04:17:02.478Z,89.83
2018-08-22T04:18:02.461Z,89.98
2018-08-22T04:19:02.454Z,91.23
2018-08-22T04:20:02.430Z,92.82
2018-08-22T04:21:02.415Z,92.91
2018-08-22T04:22:02.402Z,93.68
2018-08-22T04:23:02.393Z,94.07
2018-08-22T04:24:02.369Z,94.45
2018-08-22T04:25:02.354Z,94.35
2018-08-22T04:26:02.340Z,94.45
2018-08-22T04:27:02.327Z,94.64
2018-08-22T04:28:02.308Z,94.45
2018-08-22T04:29:02.293Z,95.21
2018-08-22T04:30:02.276Z,94.59
2018-08-22T04:31:02.316Z,93.82
2018-08-22T04:32:02.248Z,93.25
2018-08-22T04:33:02.230Z,93.15
2018-08-22T04:34:02.215Z,91.90
2018-08-22T04:35:02.199Z,92.29
2018-08-22T04:36:02.184Z,91.90
2018-08-22T04:37:02.169Z,91.33
2018-08-22T04:38:02.155Z,91.71
2018-08-22T04:39:02.138Z,92.86
2018-08-22T04:40:02.131Z,93.01
2018-08-22T04:41:02.108Z,93.68
2018-08-22T04:42:02.092Z,93.49
2018-08-22T04:43:02.077Z,93.87
2018-08-22T04:44:02.069Z,94.07
2018-08-22T04:45:02.047Z,94.45
2018-08-22T04:46:02.033Z,94.35
2018-08-22T04:47:02.016Z,94.54
2018-08-22T04:48:02.000Z,94.40
2018-08-22T04:49:01.983Z,93.73
2018-08-22T04:50:01.970Z,93.15
2018-08-22T04:51:01.953Z,93.25
2018-08-22T04:52:01.937Z,92.67
2018-08-22T04:53:01.923Z,92.67
2018-08-22T04:54:01.909Z,92.96
2018-08-22T04:55:01.895Z,92.91
2018-08-22T04:56:01.877Z,92.91
2018-08-22T04:57:01.860Z,92.81
2018-08-22T04:58:01.844Z,92.33
2018-08-22T04:59:01.828Z,91.56
2018-08-22T05:00:01.813Z,92.10
2018-08-22T05:01:01.797Z,93.25
2018-08-22T05:02:01.787Z,93.44
2018-08-22T05:03:01.776Z,93.25
2018-08-22T05:04:01.754Z,93.73
2018-08-22T05:05:01.736Z,94.98
2018-08-22T05:06:01.749Z,94.69
2018-08-22T05:07:01.708Z,95.17
2018-08-22T05:08:01.689Z,95.36
2018-08-22T05:09:01.676Z,95.45
2018-08-22T05:10:01.660Z,94.69
2018-08-22T05:11:01.648Z,94.59
2018-08-22T05:12:01.632Z,93.92
2018-08-22T05:13:01.616Z,93.77
2018-08-22T05:14:01.601Z,93.58
2018-08-22T05:15:01.582Z,92.72
2018-08-22T05:16:01.565Z,92.33
2018-08-22T05:17:01.557Z,92.14
2018-08-22T05:18:01.535Z,91.56
2018-08-22T05:19:01.520Z,91.95
2018-08-22T05:20:01.508Z,93.39
2018-08-22T05:21:01.502Z,94.06
2018-08-22T05:22:01.473Z,94.06
2018-08-22T05:23:01.460Z,94.54
2018-08-22T05:24:01.444Z,94.73
2018-08-22T05:25:01.433Z,94.93
2018-08-22T05:26:01.413Z,95.21
2018-08-22T05:27:01.397Z,94.35
2018-08-22T05:28:01.381Z,94.35
2018-08-22T05:29:01.370Z,94.64
2018-08-22T05:30:01.371Z,94.73
2018-08-22T05:31:01.335Z,94.16
2018-08-22T05:32:01.333Z,94.64
2018-08-22T05:33:01.305Z,94.73
2018-08-22T05:34:01.295Z,94.64
2018-08-22T05:35:01.281Z,94.06
2018-08-22T05:36:01.258Z,93.77
2018-08-22T05:37:01.242Z,93.82
2018-08-22T05:38:01.229Z,93.53
2018-08-22T05:39:01.212Z,92.96
2018-08-22T05:40:01.200Z,92.09
2018-08-22T05:41:01.182Z,92.09
2018-08-22T05:42:01.170Z,91.61
2018-08-22T05:43:01.153Z,91.42
2018-08-22T05:44:01.137Z,91.71
2018-08-22T05:45:01.120Z,91.71
2018-08-22T05:46:01.105Z,91.90
2018-08-22T05:47:01.090Z,91.32
2018-08-22T05:48:01.079Z,91.52
2018-08-22T05:49:01.067Z,91.80
2018-08-22T05:50:01.044Z,91.42
2018-08-22T05:51:01.030Z,91.71
2018-08-22T05:52:01.013Z,91.42
2018-08-22T05:53:00.999Z,91.13
2018-08-22T05:54:00.987Z,91.22
2018-08-22T05:55:00.974Z,91.71
2018-08-22T05:56:00.954Z,91.61
2018-08-22T05:57:00.940Z,91.22
2018-08-22T05:58:00.922Z,91.22
2018-08-22T05:59:00.908Z,90.55
2018-08-22T06:00:00.895Z,90.17
2018-08-22T06:01:00.877Z,90.50
2018-08-22T06:02:00.866Z,90.21
2018-08-22T06:03:00.849Z,90.41
2018-08-22T06:04:00.839Z,90.79
2018-08-22T06:05:00.820Z,91.27
2018-08-22T06:06:00.803Z,91.66
2018-08-22T06:07:00.791Z,90.50
2018-08-22T06:08:00.772Z,90.59
2018-08-22T06:09:00.798Z,90.31
2018-08-22T06:10:00.745Z,89.35
2018-08-22T06:11:00.726Z,89.44
2018-08-22T06:12:00.716Z,89.92
2018-08-22T06:13:00.696Z,89.64
2018-08-22T06:14:00.684Z,90.21
2018-08-22T06:15:00.667Z,89.54
2018-08-22T06:16:00.652Z,89.64
2018-08-22T06:17:00.635Z,89.54
2018-08-22T06:18:00.621Z,89.35
2018-08-22T06:19:00.606Z,89.15
2018-08-22T06:20:00.595Z,88.19
2018-08-22T06:21:00.588Z,87.13
2018-08-22T06:22:00.562Z,86.56
2018-08-22T06:23:00.548Z,86.18
2018-08-22T06:24:00.532Z,86.27
2018-08-22T06:25:00.517Z,86.22
2018-08-22T06:26:00.504Z,85.44
2018-08-22T06:27:00.488Z,86.79
2018-08-22T06:28:00.471Z,87.27
2018-08-22T06:29:00.455Z,86.79
2018-08-22T06:30:00.442Z,86.89
2018-08-22T06:31:00.428Z,86.60
2018-08-22T06:32:00.415Z,86.22
2018-08-22T06:33:00.456Z,85.74
2018-08-22T06:34:00.382Z,85.35
2018-08-22T06:35:00.369Z,85.54
2018-08-22T06:36:00.364Z,85.06
2018-08-22T06:37:00.340Z,84.67
2018-08-22T06:38:00.325Z,84.19
2018-08-22T06:39:00.310Z,85.16
2018-08-22T06:40:00.295Z,84.23
2018-08-22T06:41:00.304Z,83.56
2018-08-22T06:42:00.266Z,84.23
2018-08-22T06:43:00.251Z,83.85
2018-08-22T06:44:00.236Z,84.05
2018-08-22T06:45:00.228Z,84.72
2018-08-22T06:46:00.209Z,84.72
2018-08-22T06:47:00.193Z,83.66
2018-08-22T06:48:00.178Z,83.56
2018-08-22T06:49:00.169Z,83.95
2018-08-22T06:50:00.149Z,83.99
2018-08-22T06:51:00.133Z,83.61
2018-08-22T06:52:00.127Z,83.70
2018-08-22T06:53:00.112Z,83.41
2018-08-22T06:54:00.099Z,83.99
2018-08-22T06:55:00.073Z,83.22
2018-08-22T06:56:00.060Z,83.41
2018-08-22T06:57:00.084Z,82.74
2018-08-22T06:58:00.031Z,82.64
2018-08-22T06:59:00.018Z,83.03
2018-08-22T07:00:00.005Z,83.03
2018-08-22T07:00:59.990Z,82.16
2018-08-22T07:01:59.972Z,82.54
2018-08-22T07:02:59.961Z,82.06
2018-08-22T07:03:59.941Z,81.87
2018-08-22T07:04:59.930Z,82.64
2018-08-22T07:05:59.912Z,82.06
2018-08-22T07:06:59.900Z,82.06
2018-08-22T07:07:59.911Z,81.48
2018-08-22T07:08:59.869Z,81.01
2018-08-22T07:09:59.858Z,81.14
2018-08-22T07:10:59.841Z,81.58
2018-08-22T07:11:59.826Z,81.62
2018-08-22T07:12:59.814Z,81.52
2018-08-22T07:13:59.810Z,81.20
2018-08-22T07:14:59.784Z,81.96
2018-08-22T07:15:59.768Z,82.39
2018-08-22T07:16:59.755Z,82.06
2018-08-22T07:17:59.738Z,82.68
2018-08-22T07:18:59.727Z,82.29
2018-08-22T07:19:59.713Z,82.39
2018-08-22T07:20:59.770Z,82.10
2018-08-22T07:21:59.681Z,82.10
2018-08-22T07:22:59.668Z,82.20
2018-08-22T07:23:59.654Z,81.43
2018-08-22T07:24:59.641Z,81.62
2018-08-22T07:25:59.626Z,82.29
2018-08-22T07:26:59.610Z,81.62
2018-08-22T07:27:59.596Z,81.14
2018-08-22T07:28:59.582Z,81.04
2018-08-22T07:29:59.615Z,81.62
2018-08-22T07:30:59.561Z,82.14
2018-08-22T07:31:59.547Z,82.14
2018-08-22T07:32:59.527Z,81.27
2018-08-22T07:33:59.512Z,81.27
2018-08-22T07:34:59.497Z,79.93
2018-08-22T07:35:59.485Z,79.49
2018-08-22T07:36:59.468Z,79.19
2018-08-22T07:37:59.459Z,77.94
2018-08-22T07:38:59.439Z,78.03
2018-08-22T07:39:59.426Z,78.33
2018-08-22T07:40:59.419Z,79.10
2018-08-22T07:41:59.403Z,78.56
2018-08-22T07:42:59.384Z,78.08
2018-08-22T07:43:59.368Z,78.08
2018-08-22T07:44:59.353Z,77.88
2018-08-22T07:45:59.341Z,77.50
2018-08-22T07:46:59.377Z,75.95
2018-08-22T07:47:59.312Z,76.18
2018-08-22T07:48:59.298Z,76.05
2018-08-22T07:49:59.285Z,76.24
2018-08-22T07:50:59.273Z,76.47
2018-08-22T07:51:59.257Z,75.89
2018-08-22T07:52:59.246Z,76.18
2018-08-22T07:53:59.231Z,75.70
2018-08-22T07:54:59.218Z,75.31
2018-08-22T07:55:59.213Z,75.12
2018-08-22T07:56:59.188Z,74.19
2018-08-22T07:57:59.176Z,74.38
2018-08-22T07:58:59.161Z,74.38
2018-08-22T07:59:59.176Z,74.29
2018-08-22T08:00:59.138Z,74.10
2018-08-22T08:01:59.163Z,72.84
2018-08-22T08:02:59.108Z,73.90
2018-08-22T08:03:59.095Z,74.38
2018-08-22T08:04:59.080Z,73.74
2018-08-22T08:05:59.066Z,74.32
2018-08-22T08:06:59.051Z,75.10
2018-08-22T08:07:59.041Z,74.42
2018-08-22T08:08:59.024Z,72.81
2018-08-22T08:09:59.011Z,72.30
2018-08-22T08:10:59.034Z,72.20
2018-08-22T08:11:58.994Z,72.04
2018-08-22T08:12:58.973Z,72.33
2018-08-22T08:13:58.961Z,72.62
2018-08-22T08:14:58.947Z,72.91
2018-08-22T08:15:58.931Z,72.24
2018-08-22T08:16:58.928Z,72.42
2018-08-22T08:17:58.905Z,72.24
2018-08-22T08:18:58.891Z,71.66
2018-08-22T08:19:58.875Z,72.95
2018-08-22T08:20:58.864Z,71.98
2018-08-22T08:21:58.851Z,71.59
2018-08-22T08:22:58.847Z,72.08
2018-08-22T08:23:58.831Z,71.20
2018-08-22T08:24:58.814Z,71.50
2018-08-22T08:25:58.801Z,69.66
2018-08-22T08:26:58.785Z,68.63
2018-08-22T08:27:58.772Z,69.50
2018-08-22T08:28:58.760Z,69.50
2018-08-22T08:29:58.747Z,67.95
2018-08-22T08:30:58.735Z,68.43
2018-08-22T08:31:58.728Z,67.95
2018-08-22T08:32:58.707Z,68.37
2018-08-22T08:33:58.705Z,68.66
2018-08-22T08:34:58.687Z,67.98
2018-08-22T08:35:58.677Z,67.98
2018-08-22T08:36:58.658Z,67.69
2018-08-22T08:37:58.663Z,66.72
2018-08-22T08:38:58.639Z,66.63
2018-08-22T08:39:58.619Z,65.08
2018-08-22T08:40:58.609Z,64.11
2018-08-22T08:41:58.596Z,64.01
2018-08-22T08:42:58.582Z,64.01
2018-08-22T08:43:58.572Z,64.89
2018-08-22T08:44:58.556Z,63.27
2018-08-22T08:45:58.542Z,64.04
2018-08-22T08:46:58.542Z,63.85
2018-08-22T08:47:58.517Z,63.95
2018-08-22T08:48:58.534Z,62.69
2018-08-22T08:49:58.492Z,62.69
2018-08-22T08:50:58.498Z,61.82
2018-08-22T08:51:58.469Z,62.23
2018-08-22T08:52:58.482Z,62.13
2018-08-22T08:53:58.445Z,62.13
2018-08-22T08:54:58.435Z,62.43
2018-08-22T08:55:58.422Z,61.75
2018-08-22T08:56:58.408Z,63.10
2018-08-22T08:57:58.396Z,62.23
2018-08-22T08:58:58.389Z,60.97
2018-08-22T08:59:58.372Z,60.52
2018-08-22T09:00:58.370Z,60.39
2018-08-22T09:01:58.384Z,60.97
2018-08-22T09:02:58.335Z,60.30
2018-08-22T09:03:58.512Z,59.81
2018-08-22T09:04:58.369Z,58.65
2018-08-22T09:05:58.300Z,59.23
2018-08-22T09:06:58.290Z,59.74
2018-08-22T09:07:58.276Z,59.26
2018-08-22T09:08:58.272Z,59.94
2018-08-22T09:09:58.259Z,60.13
2018-08-22T09:10:58.244Z,58.77
2018-08-22T09:11:58.229Z,58.09
2018-08-22T09:12:58.215Z,59.45
2018-08-22T09:13:58.204Z,59.97
2018-08-22T09:14:58.200Z,60.16
2018-08-22T09:15:58.180Z,60.16
2018-08-22T09:16:58.167Z,58.80
2018-08-22T09:17:58.167Z,58.54
2018-08-22T09:18:58.154Z,58.73
2018-08-22T09:19:58.131Z,57.47
2018-08-22T09:20:58.217Z,57.08
2018-08-22T09:21:58.117Z,56.28
2018-08-22T09:22:58.107Z,56.96
2018-08-22T09:23:58.100Z,56.28
2018-08-22T09:24:58.084Z,57.06
2018-08-22T09:25:58.062Z,56.67
2018-08-22T09:26:58.056Z,57.76
2018-08-22T09:27:58.045Z,56.70
2018-08-22T09:28:58.029Z,56.11
2018-08-22T09:29:58.025Z,57.47
2018-08-22T09:30:58.012Z,56.98
2018-08-22T09:31:57.995Z,56.04
2018-08-22T09:32:57.992Z,55.65
2018-08-22T09:33:57.984Z,55.55
2018-08-22T09:34:57.963Z,54.97
2018-08-22T09:35:57.963Z,54.88
2018-08-22T09:36:57.964Z,55.46
2018-08-22T09:37:57.931Z,56.24
2018-08-22T09:38:57.923Z,54.68
2018-08-22T09:39:57.932Z,55.88
2018-08-22T09:40:57.894Z,55.55
2018-08-22T09:41:57.893Z,54.68
2018-08-22T09:42:57.870Z,54.78
2018-08-22T09:43:57.857Z,54.49
2018-08-22T09:44:57.847Z,55.27
2018-08-22T09:45:57.839Z,55.00
2018-08-22T09:46:57.825Z,55.88
2018-08-22T09:47:57.837Z,54.42
2018-08-22T09:48:57.810Z,53.64
2018-08-22T09:49:57.800Z,53.64
2018-08-22T09:50:57.857Z,54.61
2018-08-22T09:51:57.772Z,53.06
2018-08-22T09:52:57.764Z,53.83
2018-08-22T09:53:57.745Z,52.98
2018-08-22T09:54:57.740Z,52.50
2018-08-22T09:55:57.726Z,52.47
2018-08-22T09:56:57.714Z,52.21
2018-08-22T09:57:57.700Z,53.16
2018-08-22T09:58:57.705Z,52.69
2018-08-22T09:59:57.679Z,53.67
2018-08-22T10:00:57.671Z,52.31
2018-08-22T10:01:57.665Z,52.40
2018-08-22T10:02:57.652Z,53.96
2018-08-22T10:03:57.634Z,52.40
2018-08-22T10:04:57.625Z,51.14
2018-08-22T10:05:57.611Z,52.21
2018-08-22T10:06:57.642Z,52.31
2018-08-22T10:07:57.588Z,51.75
2018-08-22T10:08:57.579Z,50.68
2018-08-22T10:09:57.682Z,50.87
2018-08-22T10:10:57.566Z,51.26
2018-08-22T10:11:57.546Z,50.58
2018-08-22T10:12:57.533Z,50.97
2018-08-22T10:13:57.520Z,50.65
2018-08-22T10:14:57.525Z,50.16
2018-08-22T10:15:57.517Z,51.33
2018-08-22T10:16:57.487Z,51.14
2018-08-22T10:17:57.485Z,51.72
2018-08-22T10:18:57.468Z,51.62
2018-08-22T10:19:57.455Z,51.36
2018-08-22T10:20:57.445Z,51.43
2018-08-22T10:21:57.433Z,52.79
2018-08-22T10:22:57.432Z,50.87
2018-08-22T10:23:57.412Z,50.58
2018-08-22T10:24:57.401Z,49.41
2018-08-22T10:25:57.391Z,50.09
2018-08-22T10:26:57.399Z,50.87
2018-08-22T10:27:57.368Z,50.78
2018-08-22T10:28:57.369Z,50.87
2018-08-22T10:29:57.349Z,50.19
2018-08-22T10:30:57.338Z,50.46
2018-08-22T10:31:57.328Z,50.75
2018-08-22T10:32:57.397Z,50.95
2018-08-22T10:33:57.306Z,50.26
2018-08-22T10:34:57.294Z,50.85
2018-08-22T10:35:57.293Z,50.65
2018-08-22T10:36:57.272Z,49.90
2018-08-22T10:37:57.265Z,50.09
2018-08-22T10:38:57.251Z,50.09
2018-08-22T10:39:57.240Z,49.41
2018-08-22T10:40:57.231Z,49.02
2018-08-22T10:41:57.228Z,49.61
2018-08-22T10:42:57.224Z,49.02
2018-08-22T10:43:57.198Z,50.48
2018-08-22T10:44:57.188Z,50.78
2018-08-22T10:45:57.182Z,49.63
2018-08-22T10:46:57.174Z,49.54
2018-08-22T10:47:57.158Z,49.63
2018-08-22T10:48:57.146Z,47.80
2018-08-22T10:49:57.134Z,47.80
2018-08-22T10:50:57.145Z,48.39
2018-08-22T10:51:57.116Z,49.46
2018-08-22T10:52:57.110Z,49.17
2018-08-22T10:53:57.152Z,47.42
2018-08-22T10:54:57.081Z,47.90
2018-08-22T10:55:57.074Z,46.73
2018-08-22T10:56:57.059Z,46.54
2018-08-22T10:57:57.049Z,47.13
2018-08-22T10:58:57.044Z,48.10
2018-08-22T10:59:57.025Z,47.61
2018-08-22T11:00:57.015Z,48.39
2018-08-22T11:01:57.019Z,47.32
2018-08-22T11:02:56.998Z,48.39
2018-08-22T11:03:56.989Z,48.10
2018-08-22T11:04:56.982Z,47.42
2018-08-22T11:05:56.969Z,47.52
2018-08-22T11:06:56.962Z,47.61
2018-08-22T11:07:56.953Z,47.61
2018-08-22T11:08:56.936Z,47.44
2018-08-22T11:09:56.942Z,46.27
2018-08-22T11:10:56.917Z,47.63
2018-08-22T11:11:56.906Z,47.92
2018-08-22T11:12:56.894Z,46.66
2018-08-22T11:13:56.885Z,46.08
2018-08-22T11:14:56.872Z,45.78
2018-08-22T11:15:56.973Z,45.59
2018-08-22T11:16:56.848Z,45.86
2018-08-22T11:17:56.839Z,46.25
2018-08-22T11:18:56.828Z,47.13
2018-08-22T11:19:56.826Z,47.20
2018-08-22T11:20:56.805Z,47.20
2018-08-22T11:21:56.801Z,47.20
2018-08-22T11:22:56.792Z,48.07
2018-08-22T11:23:56.775Z,48.27
2018-08-22T11:24:56.764Z,48.27
2018-08-22T11:25:56.764Z,48.17
2018-08-22T11:26:56.746Z,47.78
2018-08-22T11:27:56.742Z,47.30
2018-08-22T11:28:56.728Z,47.37
2018-08-22T11:29:56.715Z,47.17
2018-08-22T11:30:56.706Z,48.05
2018-08-22T11:31:56.692Z,48.63
2018-08-22T11:32:56.688Z,47.30
2018-08-22T11:33:56.670Z,47.88
2018-08-22T11:34:56.669Z,47.59
2018-08-22T11:35:56.655Z,48.36
2018-08-22T11:36:56.636Z,48.19
2018-08-22T11:37:56.636Z,48.00
2018-08-22T11:38:56.619Z,47.32
2018-08-22T11:39:56.614Z,48.19
2018-08-22T11:40:56.604Z,47.05
2018-08-22T11:41:56.595Z,46.00
2018-08-22T11:42:56.586Z,46.49
2018-08-22T11:43:56.567Z,45.59
2018-08-22T11:44:56.554Z,46.08
2018-08-22T11:45:56.544Z,45.68
2018-08-22T11:46:56.537Z,46.37
2018-08-22T11:47:56.521Z,46.93
2018-08-22T11:48:56.514Z,46.64
2018-08-22T11:49:56.515Z,47.13
2018-08-22T11:50:56.491Z,46.64
2018-08-22T11:51:56.480Z,47.22
2018-08-22T11:52:56.470Z,47.32
2018-08-22T11:53:56.465Z,47.25
2018-08-22T11:54:56.454Z,46.27
2018-08-22T11:55:56.474Z,46.37
2018-08-22T11:56:56.428Z,47.83
2018-08-22T11:57:56.416Z,45.78
2018-08-22T11:58:56.417Z,45.81
2018-08-22T11:59:56.395Z,45.71
2018-08-22T12:00:56.387Z,44.73
2018-08-22T12:01:56.387Z,46.10
2018-08-22T12:02:56.375Z,45.42
2018-08-22T12:03:56.356Z,44.83
2018-08-22T12:04:56.348Z,45.83
2018-08-22T12:05:56.336Z,45.51
2018-08-22T12:06:56.332Z,45.25
2018-08-22T12:07:56.313Z,44.85
2018-08-22T12:08:56.306Z,44.85
2018-08-22T12:09:56.295Z,43.49
2018-08-22T12:10:56.289Z,44.38
2018-08-22T12:11:56.272Z,43.68
2018-08-22T12:12:56.267Z,43.49
2018-08-22T12:13:56.254Z,44.66
2018-08-22T12:14:56.256Z,44.07
2018-08-22T12:15:56.252Z,44.97
2018-08-22T12:16:56.224Z,43.12
2018-08-22T12:17:56.214Z,43.78
2018-08-22T12:18:56.205Z,43.00
2018-08-22T12:19:56.191Z,44.15
2018-08-22T12:20:56.193Z,44.15
2018-08-22T12:21:56.173Z,44.15
2018-08-22T12:22:56.213Z,45.32
2018-08-22T12:23:56.155Z,44.34
2018-08-22T12:24:56.149Z,44.46
2018-08-22T12:25:56.134Z,43.78
2018-08-22T12:26:56.127Z,43.59
2018-08-22T12:27:56.113Z,43.68
2018-08-22T12:28:56.110Z,44.07
2018-08-22T12:29:56.095Z,45.15
2018-08-22T12:30:56.085Z,44.37
2018-08-22T12:31:56.073Z,45.05
2018-08-22T12:32:56.061Z,44.87
2018-08-22T12:33:56.053Z,43.80
2018-08-22T12:34:56.043Z,43.68
2018-08-22T12:35:56.041Z,43.59
2018-08-22T12:36:56.027Z,44.83
2018-08-22T12:37:56.028Z,44.44
2018-08-22T12:38:56.003Z,45.03
2018-08-22T12:39:55.992Z,46.69
2018-08-22T12:40:55.987Z,44.93
2018-08-22T12:41:55.972Z,44.85
2018-08-22T12:42:55.965Z,43.49
2018-08-22T12:43:55.953Z,44.66
2018-08-22T12:44:55.942Z,43.71
2018-08-22T12:45:55.934Z,43.49
2018-08-22T12:46:55.921Z,43.71
2018-08-22T12:47:55.933Z,44.58
2018-08-22T12:48:55.904Z,44.07
2018-08-22T12:49:55.892Z,43.49
2018-08-22T12:50:55.888Z,43.41
2018-08-22T12:51:55.873Z,43.02